Time;durP1;ratioP1;P1;durP2;ratioP2;P2;SDS_P1;SDS_P2;PMS_P1;PMS_P2;Temp;Humidity;BMP_temperature;BMP_pressure;BME280_temperature;BME280_humidity;BME280_pressure;Samples;Min_cycle;Max_cycle;Signal;HPM_P1;HPM_P2
2022/02/02 00:02:48;;;;;;;50.78;6.15;;;;;;;6.82;85.09;101765.19;5074843;28;20040;-78
2022/02/02 00:05:33;;;;;;;45.13;6.30;;;;;;;6.80;85.05;101752.97;5074560;28;20032;-78
2022/02/02 00:08:04;;;;;;;42.33;6.63;;;;;;;6.81;85.11;101766.09;5073697;28;20060;-79
2022/02/02 00:13:06;;;;;;;35.67;5.72;;;;;;;6.86;84.72;101742.03;5074942;28;20092;-80
2022/02/02 00:15:50;;;;;;;46.97;6.85;;;;;;;6.86;84.67;101755.25;5074118;28;20020;-79
2022/02/02 00:18:47;;;;;;;43.38;5.60;;;;;;;6.85;84.57;101745.59;5074461;28;20036;-79
2022/02/02 00:21:58;;;;;;;40.08;5.22;;;;;;;6.84;84.83;101754.50;5074212;28;20035;-80
2022/02/02 00:24:06;;;;;;;43.67;6.65;;;;;;;6.81;84.83;101757.34;5062930;28;20044;-80
2022/02/02 00:26:37;;;;;;;55.50;7.07;;;;;;;6.81;85.11;101757.34;5074380;28;20036;-78
2022/02/02 00:29:12;;;;;;;40.33;6.95;;;;;;;6.85;84.85;101748.25;5074721;28;20097;-78
2022/02/02 00:31:46;;;;;;;46.65;6.80;;;;;;;6.85;84.58;101759.69;5073166;28;20035;-78
2022/02/02 00:34:17;;;;;;;34.13;6.22;;;;;;;6.81;84.77;101759.97;5074314;28;20028;-78
2022/02/02 00:36:55;;;;;;;43.45;6.40;;;;;;;6.76;84.99;101756.75;5074035;28;20040;-78
2022/02/02 00:39:20;;;;;;;51.72;7.35;;;;;;;6.71;85.14;101747.28;5072564;28;20047;-78
2022/02/02 00:41:46;;;;;;;43.45;6.82;;;;;;;6.68;85.28;101760.69;5074139;28;20024;-77
2022/02/02 00:44:14;;;;;;;38.83;6.95;;;;;;;6.66;85.36;101752.00;5073653;28;20044;-79
2022/02/02 00:46:40;;;;;;;51.67;6.22;;;;;;;6.68;85.34;101743.97;5072485;28;20055;-78
2022/02/02 00:49:06;;;;;;;45.83;6.75;;;;;;;6.64;85.24;101743.31;5072079;28;20416;-78
2022/02/02 00:51:45;;;;;;;40.53;7.05;;;;;;;6.58;85.65;101751.59;5073764;28;20060;-78
2022/02/02 00:54:14;;;;;;;44.85;7.13;;;;;;;6.53;85.99;101749.22;5073474;28;20495;-77
2022/02/02 00:56:40;;;;;;;42.22;6.03;;;;;;;6.53;86.08;101756.31;5073500;28;20136;-79
2022/02/02 00:59:05;;;;;;;38.65;6.15;;;;;;;6.55;86.01;101754.41;5073495;28;20532;-78
2022/02/02 01:01:31;;;;;;;44.15;5.70;;;;;;;6.56;86.13;101760.59;5073275;28;20036;-79
2022/02/02 01:03:56;;;;;;;49.78;6.20;;;;;;;6.53;86.33;101751.03;5073023;28;20036;-78
2022/02/02 01:06:23;;;;;;;43.83;6.45;;;;;;;6.56;86.01;101758.78;5073977;28;20035;-80
2022/02/02 01:11:50;;;;;;;46.17;6.25;;;;;;;6.55;86.27;101758.88;5073582;28;20098;-80
2022/02/02 01:22:18;;;;;;;42.05;7.60;;;;;;;6.49;86.99;101737.16;5073485;28;20094;-82
2022/02/02 01:27:49;;;;;;;41.15;6.05;;;;;;;6.46;87.13;101763.75;5073543;28;20075;-79
2022/02/02 01:30:16;;;;;;;48.58;8.43;;;;;;;6.42;87.21;101764.00;5073315;28;20028;-80
2022/02/02 01:32:41;;;;;;;42.97;6.43;;;;;;;6.45;87.43;101772.63;5073136;28;20028;-80
2022/02/02 01:35:14;;;;;;;48.75;6.22;;;;;;;6.44;87.26;101770.09;5073111;28;20090;-78
2022/02/02 01:37:39;;;;;;;48.17;6.45;;;;;;;6.41;87.70;101767.63;5073122;28;20476;-76
2022/02/02 01:40:13;;;;;;;56.95;7.97;;;;;;;6.39;87.88;101778.28;5073099;28;20043;-80
2022/02/02 01:42:47;;;;;;;52.60;6.72;;;;;;;6.33;88.33;101789.22;5074360;28;20074;-77
2022/02/02 01:45:21;;;;;;;43.97;6.22;;;;;;;6.28;88.74;101781.53;5076871;28;20067;-80
2022/02/02 01:48:01;;;;;;;43.05;5.43;;;;;;;6.28;89.00;101799.19;5077329;28;20066;-79
2022/02/02 01:50:38;;;;;;;40.83;6.32;;;;;;;6.22;89.31;101797.75;5077641;28;20039;-78
2022/02/02 01:54:16;;;;;;;43.83;6.57;;;;;;;6.26;89.46;101815.13;5077161;28;20032;-78
2022/02/02 01:56:01;;;;;;;56.15;7.00;;;;;;;6.27;89.58;101811.56;5063276;28;20362;-80
2022/02/02 02:01:12;;;;;;;40.88;6.35;;;;;;;6.32;89.18;101812.13;5076096;28;20486;-80
2022/02/02 02:03:38;;;;;;;40.20;5.97;;;;;;;6.26;89.39;101825.69;5075751;28;20035;-78
2022/02/02 02:06:05;;;;;;;60.92;7.18;;;;;;;6.25;89.68;101816.06;5076154;28;20036;-79
2022/02/02 02:08:30;;;;;;;55.20;6.90;;;;;;;6.26;90.08;101820.41;5075193;28;20024;-79
2022/02/02 02:10:58;;;;;;;44.10;6.68;;;;;;;6.27;89.99;101840.63;5076721;28;20048;-79
2022/02/02 02:16:11;;;;;;;51.83;6.97;;;;;;;6.32;89.83;101824.50;5075707;28;20055;-79
2022/02/02 02:18:36;;;;;;;44.17;6.97;;;;;;;6.38;89.62;101831.25;5076839;28;20028;-79
2022/02/02 02:21:09;;;;;;;43.00;7.57;;;;;;;6.42;89.50;101828.34;5076474;28;20033;-79
2022/02/02 02:23:35;;;;;;;41.13;6.80;;;;;;;6.48;89.31;101821.84;5076767;28;20032;-79
2022/02/02 02:26:00;;;;;;;48.45;7.93;;;;;;;6.49;89.13;101816.47;5076120;28;20115;-80
2022/02/02 02:31:23;;;;;;;45.95;6.00;;;;;;;6.59;88.50;101813.28;5076419;28;20052;-78
2022/02/02 02:57:57;;;;;;;44.63;6.13;;;;;;;6.66;87.71;101799.63;5075994;28;20087;-79
2022/02/02 03:13:47;;;;;;;35.33;5.07;;;;;;;6.69;87.71;101811.81;5074762;28;20427;-79
2022/02/02 03:29:42;;;;;;;41.40;6.00;;;;;;;6.77;86.93;101820.13;5075732;28;20094;-78
2022/02/02 03:53:17;;;;;;;46.92;8.00;;;;;;;6.73;87.83;101815.13;5075429;28;20044;-80
2022/02/02 04:05:39;;;;;;;43.92;6.85;;;;;;;6.67;88.38;101834.84;5074078;28;20040;-79
2022/02/02 04:08:28;;;;;;;53.45;7.15;;;;;;;6.63;88.61;101828.88;5074502;28;20032;-78
2022/02/02 04:10:55;;;;;;;48.08;7.05;;;;;;;6.65;88.18;101831.44;5072816;28;20481;-79
2022/02/02 04:38:41;;;;;;;48.80;7.25;;;;;;;6.61;89.02;101854.53;5072462;28;20074;-79
2022/02/02 04:54:54;;;;;;;41.17;6.72;;;;;;;6.57;89.46;101871.56;5073104;28;20056;-78
2022/02/02 05:03:39;;;;;;;46.10;7.90;;;;;;;6.55;89.82;101875.22;5073417;28;20042;-78
2022/02/02 05:14:09;;;;;;;44.17;6.72;;;;;;;6.46;90.40;101881.88;5073364;28;20476;-77
2022/02/02 05:16:31;;;;;;;40.35;6.03;;;;;;;6.46;90.55;101884.53;5072568;28;20060;-78
2022/02/02 05:21:56;;;;;;;44.13;6.65;;;;;;;6.46;90.59;101889.81;5077533;28;20478;-79
2022/02/02 05:53:33;;;;;;;44.95;6.30;;;;;;;6.41;91.22;101908.56;5076833;28;20038;-78
2022/02/02 05:56:01;;;;;;;44.33;7.63;;;;;;;6.42;91.62;101904.13;5075627;28;20412;-79
2022/02/02 05:58:29;;;;;;;50.60;7.80;;;;;;;6.42;91.63;101905.00;5076132;28;20037;-78
2022/02/02 06:00:56;;;;;;;52.47;6.93;;;;;;;6.41;91.61;101903.28;5076179;28;20415;-78
2022/02/02 06:03:30;;;;;;;38.97;5.20;;;;;;;6.42;91.51;101907.66;5076090;28;20132;-78
2022/02/02 06:05:56;;;;;;;33.20;4.75;;;;;;;6.41;91.64;101908.56;5076032;28;20068;-80
2022/02/02 06:08:22;;;;;;;42.00;5.97;;;;;;;6.40;91.51;101906.84;5076366;28;20062;-79
2022/02/02 06:10:49;;;;;;;43.75;5.25;;;;;;;6.40;91.56;101912.16;5075270;28;20045;-79
2022/02/02 06:13:16;;;;;;;48.67;6.40;;;;;;;6.38;91.71;101913.19;5075559;28;20045;-79
2022/02/02 06:15:42;;;;;;;48.25;6.93;;;;;;;6.34;91.68;101923.94;5076031;28;20036;-78
2022/02/02 06:18:08;;;;;;;47.83;6.97;;;;;;;6.32;91.72;101917.03;5075212;28;20032;-79
2022/02/02 06:20:36;;;;;;;45.03;6.90;;;;;;;6.27;91.95;101921.69;5075864;28;20032;-78
2022/02/02 06:23:01;;;;;;;48.83;6.40;;;;;;;6.21;92.38;101937.91;5075900;28;20032;-79
2022/02/02 06:25:28;;;;;;;40.72;5.35;;;;;;;6.20;92.67;101939.69;5075627;28;20025;-78
2022/02/02 06:28:00;;;;;;;50.42;8.13;;;;;;;6.18;92.92;101938.94;5074558;28;20032;-78
2022/02/02 06:30:27;;;;;;;43.63;7.10;;;;;;;6.17;93.02;101937.22;5075470;28;20449;-78
2022/02/02 06:32:56;;;;;;;44.55;6.40;;;;;;;6.14;93.07;101932.94;5075728;28;20032;-79
2022/02/02 06:35:22;;;;;;;43.47;5.75;;;;;;;6.11;93.13;101945.50;5075237;28;20124;-78
2022/02/02 06:37:49;;;;;;;36.78;5.43;;;;;;;6.11;93.51;101950.78;5075117;28;20060;-78
2022/02/02 06:40:17;;;;;;;47.20;6.60;;;;;;;6.14;93.52;101958.53;5075550;28;20024;-80
2022/02/02 06:42:43;;;;;;;44.90;6.22;;;;;;;6.18;93.44;101957.44;5075555;28;20028;-82
2022/02/02 06:45:10;;;;;;;43.42;6.30;;;;;;;6.22;93.19;101951.03;5075454;28;20039;-79
2022/02/02 06:47:37;;;;;;;46.95;5.85;;;;;;;6.21;93.06;101957.28;5075020;28;20029;-80
2022/02/02 06:50:20;;;;;;;39.42;5.75;;;;;;;6.21;93.53;101956.41;5075351;28;20082;-78
2022/02/02 06:53:17;;;;;;;39.35;7.28;;;;;;;6.23;93.78;101941.31;5075528;28;20073;-78
2022/02/02 06:56:28;;;;;;;38.42;5.82;;;;;;;6.21;93.56;101941.41;5075209;28;20036;-80
2022/02/02 06:59:29;;;;;;;40.75;6.38;;;;;;;6.25;93.76;101969.34;5075672;28;20127;-77
2022/02/02 07:02:29;;;;;;;38.13;4.85;;;;;;;6.27;93.69;101983.38;5075953;28;20048;-78
2022/02/02 07:28:58;;;;;;;27.60;3.75;;;;;;;6.61;91.50;102015.03;5074682;28;20041;-80
2022/02/02 07:37:18;;;;;;;29.00;3.95;;;;;;;6.59;92.56;102027.50;5073350;28;20103;-77
2022/02/02 07:39:45;;;;;;;33.20;4.20;;;;;;;6.55;92.69;102021.50;5074075;28;20040;-75
2022/02/02 07:42:11;;;;;;;28.35;4.65;;;;;;;6.56;93.00;102025.84;5074465;28;20039;-75
2022/02/02 07:44:39;;;;;;;24.88;3.63;;;;;;;6.56;93.10;102022.38;5074265;28;20456;-75
2022/02/02 07:47:08;;;;;;;23.00;3.40;;;;;;;6.54;93.39;102027.75;5074089;28;20037;-75
2022/02/02 07:49:43;;;;;;;24.33;4.20;;;;;;;6.53;93.96;102031.31;5073949;28;20361;-76
2022/02/02 07:52:09;;;;;;;20.08;3.78;;;;;;;6.55;94.16;102042.66;5074694;28;20533;-78
2022/02/02 07:54:40;;;;;;;25.95;3.70;;;;;;;6.57;94.50;102051.38;5073769;28;20381;-80
2022/02/02 07:57:15;;;;;;;24.80;4.00;;;;;;;6.57;94.73;102061.97;5074062;28;20067;-81
2022/02/02 07:59:54;;;;;;;25.17;4.00;;;;;;;6.56;95.30;102049.66;5073636;28;20032;-77
2022/02/02 08:02:27;;;;;;;25.60;3.17;;;;;;;6.57;95.66;102051.38;5073925;28;20040;-78
2022/02/02 08:04:53;;;;;;;20.95;3.30;;;;;;;6.60;95.94;102058.28;5073522;28;20476;-82
2022/02/02 08:07:25;;;;;;;24.92;3.55;;;;;;;6.60;96.26;102068.84;5072925;28;20037;-78
2022/02/02 08:10:05;;;;;;;26.58;4.05;;;;;;;6.63;96.20;102066.06;5073201;28;20057;-82
2022/02/02 08:12:41;;;;;;;25.52;3.30;;;;;;;6.66;96.59;102053.50;5072570;28;20048;-80
2022/02/02 08:15:06;;;;;;;29.35;4.22;;;;;;;6.67;96.64;102060.53;5073071;28;20029;-81
2022/02/02 08:17:32;;;;;;;21.90;3.10;;;;;;;6.69;96.62;102060.44;5073214;28;20538;-81
2022/02/02 08:19:57;;;;;;;26.05;3.92;;;;;;;6.71;96.68;102058.56;5072838;28;20083;-81
2022/02/02 08:22:24;;;;;;;23.52;3.13;;;;;;;6.72;96.64;102065.56;5071673;28;20024;-82
2022/02/02 08:24:49;;;;;;;29.80;4.35;;;;;;;6.73;96.68;102072.53;5073338;28;20060;-79
2022/02/02 08:27:14;;;;;;;26.85;3.92;;;;;;;6.74;96.96;102076.91;5074248;28;20090;-84
2022/02/02 08:29:41;;;;;;;27.15;3.83;;;;;;;6.75;97.01;102072.44;5073544;28;20460;-78
2022/02/02 08:32:06;;;;;;;21.08;3.38;;;;;;;6.75;97.15;102070.69;5072374;28;20089;-80
2022/02/02 08:34:32;;;;;;;19.98;4.25;;;;;;;6.78;97.23;102067.03;5072542;28;20469;-79
2022/02/02 08:36:58;;;;;;;28.58;3.92;;;;;;;6.81;97.11;102057.09;5071605;28;20032;-79
2022/02/02 08:39:46;;;;;;;23.23;3.78;;;;;;;6.85;96.97;102065.72;5071446;28;20534;-79
2022/02/02 08:42:13;;;;;;;21.52;3.65;;;;;;;6.82;96.81;102056.19;5072373;28;20051;-78
2022/02/02 08:45:11;;;;;;;24.63;3.70;;;;;;;6.89;96.78;102073.41;5071575;28;20041;-81
2022/02/02 08:47:36;;;;;;;21.85;3.03;;;;;;;6.92;96.47;102075.03;5071852;28;20041;-79
2022/02/02 08:50:03;;;;;;;22.33;3.80;;;;;;;7.02;96.22;102078.03;5072348;28;20039;-79
2022/02/02 08:52:40;;;;;;;20.95;3.30;;;;;;;7.07;95.96;102071.50;5071638;28;20111;-73
2022/02/02 08:55:07;;;;;;;24.45;3.40;;;;;;;7.14;95.82;102090.56;5072316;28;20036;-78
2022/02/02 09:00:11;;;;;;;28.25;3.30;;;;;;;7.22;95.60;102106.00;5072733;28;20048;-75
2022/02/02 09:02:39;;;;;;;16.70;2.90;;;;;;;7.24;95.25;102093.56;5055602;28;20032;-78
2022/02/02 09:05:22;;;;;;;23.85;3.78;;;;;;;7.24;95.18;102101.50;5072541;28;20086;-77
2022/02/02 09:07:48;;;;;;;22.38;3.88;;;;;;;7.27;95.17;102103.97;5071102;28;20039;-76
2022/02/02 09:10:26;;;;;;;18.25;3.35;;;;;;;7.33;94.86;102100.09;5072978;28;20036;-78
2022/02/02 09:24:19;;;;;;;17.73;3.30;;;;;;;7.53;94.19;102118.38;5071902;28;20137;-76
2022/02/02 09:34:42;;;;;;;19.30;3.15;;;;;;;7.58;93.70;102121.63;5071052;28;20076;-80
2022/02/02 09:37:07;;;;;;;26.02;3.63;;;;;;;7.65;93.45;102123.91;5071733;28;20029;-79
2022/02/02 09:39:40;;;;;;;17.40;2.55;;;;;;;7.65;93.06;102124.75;5071495;28;20465;-76
2022/02/02 09:42:12;;;;;;;19.05;3.03;;;;;;;7.72;93.03;102127.91;5071856;28;20029;-77
2022/02/02 09:44:40;;;;;;;17.77;3.00;;;;;;;7.77;92.93;102131.97;5072366;28;20028;-79
2022/02/02 09:47:22;;;;;;;19.02;3.25;;;;;;;7.82;92.18;102122.91;5072314;28;20408;-76
2022/02/02 09:50:03;;;;;;;13.98;3.13;;;;;;;7.87;92.30;102134.13;5071287;28;20346;-76
2022/02/02 09:52:36;;;;;;;12.80;2.75;;;;;;;7.98;91.64;102130.84;5072216;28;20389;-76
2022/02/02 09:55:09;;;;;;;19.92;3.55;;;;;;;8.06;91.50;102134.75;5070733;28;20039;-78
2022/02/02 10:15:45;;;;;;;12.52;2.83;;;;;;;8.12;90.54;102174.13;5075763;28;20392;-79
2022/02/02 10:18:18;;;;;;;12.50;3.03;;;;;;;8.14;90.10;102184.66;5075387;28;20056;-79
2022/02/02 10:20:44;;;;;;;15.27;3.17;;;;;;;8.09;90.62;102195.53;5075495;28;20035;-78
2022/02/02 10:23:11;;;;;;;17.77;3.55;;;;;;;8.19;90.82;102192.34;5075200;28;20047;-75
2022/02/02 10:25:47;;;;;;;10.55;2.83;;;;;;;8.23;90.60;102189.41;5074693;28;20028;-78
2022/02/02 10:28:16;;;;;;;18.17;3.13;;;;;;;8.27;90.01;102196.25;5075263;28;20029;-80
2022/02/02 10:30:46;;;;;;;17.50;3.10;;;;;;;8.30;90.01;102204.00;5075188;28;20090;-78
2022/02/02 10:33:19;;;;;;;16.52;2.72;;;;;;;8.32;89.85;102198.63;5074798;28;20021;-80
2022/02/02 10:35:49;;;;;;;16.63;2.67;;;;;;;8.30;89.14;102208.47;5073862;28;20082;-77
2022/02/02 10:38:21;;;;;;;11.10;2.50;;;;;;;8.26;89.86;102207.78;5073614;28;20028;-78
2022/02/02 10:41:08;;;;;;;16.67;3.33;;;;;;;8.37;89.84;102214.25;5074909;28;20054;-78
2022/02/02 10:43:38;;;;;;;17.75;2.97;;;;;;;8.48;89.73;102209.22;5074665;28;20040;-77
2022/02/02 10:46:21;;;;;;;12.30;3.35;;;;;;;8.60;88.58;102218.22;5074379;28;20039;-75
2022/02/02 10:48:52;;;;;;;13.57;3.05;;;;;;;8.64;88.29;102214.41;5074820;28;20036;-77
2022/02/02 10:51:32;;;;;;;11.70;3.00;;;;;;;8.71;88.01;102217.56;5074130;28;20522;-76
2022/02/02 10:56:41;;;;;;;14.95;3.00;;;;;;;8.90;87.06;102219.97;5075462;28;20063;-77
2022/02/02 10:59:18;;;;;;;11.73;3.05;;;;;;;8.88;86.97;102227.16;5074726;28;20059;-77
2022/02/02 11:01:59;;;;;;;16.73;2.88;;;;;;;8.84;87.11;102218.53;5073494;28;20115;-80
2022/02/02 11:07:09;;;;;;;8.60;2.80;;;;;;;8.97;86.77;102219.50;5073760;28;20132;-77
2022/02/02 11:09:35;;;;;;;15.82;2.80;;;;;;;9.17;85.69;102217.38;5073594;28;20032;-79
2022/02/02 11:12:03;;;;;;;19.30;3.08;;;;;;;9.32;85.66;102215.56;5074248;28;20563;-77
2022/02/02 11:14:48;;;;;;;12.93;2.60;;;;;;;9.48;85.04;102212.75;5073271;28;20052;-80
2022/02/02 11:17:16;;;;;;;10.00;2.50;;;;;;;9.65;82.85;102212.53;5073263;28;20407;-76
2022/02/02 11:19:47;;;;;;;8.75;2.28;;;;;;;9.62;83.47;102217.22;5074168;28;20025;-73
2022/02/02 11:22:31;;;;;;;18.63;2.75;;;;;;;9.63;83.25;102214.47;5072867;28;20025;-77
2022/02/02 11:25:22;;;;;;;13.23;2.38;;;;;;;9.68;83.27;102215.00;5074424;28;20024;-76
2022/02/02 11:27:59;;;;;;;21.60;3.53;;;;;;;9.67;83.42;102217.75;5073573;28;20112;-75
2022/02/02 11:30:24;;;;;;;12.00;2.80;;;;;;;9.66;83.44;102222.22;5073476;28;20119;-78
2022/02/02 11:33:15;;;;;;;13.18;2.65;;;;;;;9.62;83.51;102218.06;5073981;28;20029;-76
2022/02/02 11:38:19;;;;;;;12.60;2.53;;;;;;;9.44;82.92;102213.94;5073412;28;20044;-76
2022/02/02 11:41:03;;;;;;;10.60;2.85;;;;;;;9.43;83.50;102222.84;5073587;28;20116;-77
2022/02/02 11:46:50;;;;;;;11.48;2.53;;;;;;;9.33;83.73;102215.47;5073738;28;20086;-77
2022/02/02 11:49:22;;;;;;;11.60;2.25;;;;;;;9.26;84.45;102216.81;5074040;28;20036;-76
2022/02/02 11:52:03;;;;;;;12.27;3.08;;;;;;;9.20;84.48;102214.53;5073187;28;20032;-77
2022/02/02 11:54:31;;;;;;;15.63;2.85;;;;;;;9.29;84.76;102213.09;5073591;28;20482;-75
2022/02/02 11:57:34;;;;;;;12.02;2.53;;;;;;;9.33;83.99;102218.13;5073045;28;20033;-74
2022/02/02 12:00:10;;;;;;;10.00;2.60;;;;;;;9.37;84.47;102217.94;5069762;28;20465;-76
2022/02/02 12:07:52;;;;;;;10.57;2.50;;;;;;;9.35;84.19;102218.03;5072753;28;20041;-75
2022/02/02 12:10:39;;;;;;;8.55;2.60;;;;;;;9.34;84.24;102201.25;5072659;28;20059;-76
2022/02/02 12:49:11;;;;;;;11.02;2.60;;;;;;;9.92;79.37;102192.25;5072070;28;20036;-74
2022/02/02 12:56:59;;;;;;;9.07;2.38;;;;;;;9.52;81.95;102195.69;5072853;28;20119;-76
2022/02/02 13:02:08;;;;;;;9.68;2.47;;;;;;;9.48;82.85;102191.50;5072885;28;20068;-76
2022/02/02 13:04:33;;;;;;;15.30;2.70;;;;;;;9.43;81.96;102194.47;5072558;28;20051;-76
2022/02/02 13:07:09;;;;;;;8.88;2.30;;;;;;;9.33;82.99;102191.56;5072389;28;20457;-78
2022/02/02 13:09:36;;;;;;;11.60;2.45;;;;;;;9.23;83.63;102189.59;5071972;28;20041;-77
2022/02/02 13:12:34;;;;;;;8.77;2.33;;;;;;;9.10;85.15;102197.47;5072297;28;20481;-79
2022/02/02 13:17:45;;;;;;;9.02;2.25;;;;;;;9.27;84.78;102196.41;5073036;28;20032;-77
2022/02/02 13:20:14;;;;;;;9.27;2.08;;;;;;;9.31;83.89;102198.75;5072604;28;20029;-78
2022/02/02 13:22:47;;;;;;;10.60;2.10;;;;;;;9.25;83.47;102193.84;5072461;28;20047;-76
2022/02/02 13:25:27;;;;;;;10.23;2.35;;;;;;;9.18;84.47;102203.13;5072321;28;20075;-77
2022/02/02 13:27:52;;;;;;;11.55;2.38;;;;;;;9.13;84.32;102189.31;5072072;28;20033;-76
2022/02/02 13:30:49;;;;;;;8.15;2.08;;;;;;;9.13;84.58;102186.66;5072327;28;20041;-80
2022/02/02 13:33:26;;;;;;;6.75;1.83;;;;;;;9.15;84.27;102187.41;5072255;28;20090;-78
2022/02/02 13:39:20;;;;;;;9.50;2.15;;;;;;;9.15;84.26;102188.28;5075243;28;20098;-78
2022/02/02 13:47:38;;;;;;;14.48;2.33;;;;;;;9.40;82.91;102186.69;5076492;28;20563;-78
2022/02/02 13:50:36;;;;;;;11.15;2.75;;;;;;;9.30;82.98;102198.84;5075622;28;20036;-77
2022/02/02 13:53:34;;;;;;;7.05;1.85;;;;;;;9.27;84.55;102196.41;5075705;28;20048;-77
2022/02/02 13:56:47;;;;;;;8.23;2.10;;;;;;;9.40;84.16;102205.28;5075886;28;20067;-76
2022/02/02 14:06:59;;;;;;;12.02;2.10;;;;;;;9.51;81.53;102209.94;5075893;28;20058;-81
2022/02/02 14:33:21;;;;;;;20.95;3.17;;;;;;;8.56;86.66;102229.97;5075273;28;20478;-74
2022/02/02 14:35:48;;;;;;;16.13;2.70;;;;;;;8.53;86.23;102231.00;5075259;28;20064;-74
2022/02/02 14:38:15;;;;;;;13.05;2.47;;;;;;;8.46;86.15;102238.47;5073468;28;20061;-74
2022/02/02 14:43:27;;;;;;;13.18;2.03;;;;;;;8.28;87.50;102236.88;5075273;28;20051;-76
2022/02/02 14:45:57;;;;;;;14.45;2.05;;;;;;;8.24;87.77;102238.84;5075016;28;20131;-76
2022/02/02 14:48:28;;;;;;;10.80;2.35;;;;;;;8.25;87.71;102239.69;5075008;28;20036;-78
2022/02/02 14:51:03;;;;;;;;;;;;;;;8.21;88.22;102248.75;5074224;28;20040;-77
2022/02/02 15:09:47;;;;;;;12.25;1.92;;;;;;;7.91;90.33;102213.34;5074301;28;20091;-77
2022/02/02 15:27:58;;;;;;;9.82;2.03;;;;;;;8.10;88.62;102226.38;5074230;28;20036;-78
2022/02/02 15:32:55;;;;;;;13.23;3.55;;;;;;;8.03;89.20;102224.19;5074512;28;20111;-82
2022/02/02 15:35:22;;;;;;;10.73;2.75;;;;;;;8.00;89.13;102225.22;5074415;28;20035;-82
2022/02/02 15:40:15;;;;;;;20.83;2.55;;;;;;;7.97;89.24;102227.19;5074448;28;20036;-82
2022/02/02 15:57:00;;;;;;;8.55;3.03;;;;;;;7.89;90.22;102215.22;5019171;28;20057;-75
2022/02/02 15:58:57;;;;;;;10.68;2.90;;;;;;;7.85;90.51;102223.44;5074253;28;20116;-78
2022/02/02 16:04:12;;;;;;;9.70;2.47;;;;;;;7.79;90.98;102221.97;5074559;28;20078;-74
2022/02/02 16:06:37;;;;;;;16.40;2.33;;;;;;;7.76;91.21;102211.56;5072639;28;20043;-75
2022/02/02 16:11:34;;;;;;;11.68;2.55;;;;;;;7.68;91.69;102219.09;5073937;28;20037;-74
2022/02/02 16:14:04;;;;;;;14.55;3.22;;;;;;;7.66;91.32;102213.91;5055123;28;20056;-73
2022/02/02 16:19:12;;;;;;;14.13;2.50;;;;;;;7.65;91.39;102214.81;5073211;28;20110;-73
2022/02/02 16:33:27;;;;;;;19.65;3.47;;;;;;;7.54;91.45;102214.59;5073396;28;20488;-77
2022/02/02 16:35:57;;;;;;;12.98;3.40;;;;;;;7.52;91.63;102211.16;5073385;28;20048;-74
2022/02/02 16:38:26;;;;;;;15.73;3.25;;;;;;;7.52;91.58;102225.25;5072794;28;20025;-75
2022/02/02 16:40:52;;;;;;;13.52;3.20;;;;;;;7.48;91.83;102230.78;5073878;28;20082;-76
2022/02/02 16:43:19;;;;;;;10.40;3.53;;;;;;;7.49;92.28;102230.72;5073372;28;20071;-76
2022/02/02 16:45:52;;;;;;;13.13;3.25;;;;;;;7.52;92.49;102235.00;5073124;28;20036;-79
2022/02/02 16:48:18;;;;;;;10.82;3.65;;;;;;;7.52;92.54;102235.00;5074442;28;20024;-80
2022/02/02 16:50:47;;;;;;;13.20;3.70;;;;;;;7.51;92.76;102236.78;5073588;28;20028;-80
2022/02/02 16:55:58;;;;;;;11.70;4.32;;;;;;;7.52;93.30;102225.25;5073589;28;20041;-79
2022/02/02 17:35:29;;;;;;;9.07;5.35;;;;;;;7.14;96.76;102217.63;5072917;28;20149;-82
2022/02/02 17:40:52;;;;;;;10.43;5.53;;;;;;;7.09;97.37;102224.97;5073065;28;20052;-80
2022/02/02 17:46:01;;;;;;;10.07;6.18;;;;;;;7.11;98.22;102240.78;5071782;28;20048;-79
2022/02/02 18:16:21;;;;;;;18.10;9.60;;;;;;;7.23;99.39;102225.06;5072508;28;20143;-80
2022/02/02 18:21:00;;;;;;;20.40;10.73;;;;;;;7.28;99.56;102222.16;5071324;28;20518;-80
2022/02/02 18:26:08;;;;;;;17.67;10.45;;;;;;;7.30;99.58;102214.13;5075822;28;20435;-82
2022/02/02 18:31:21;;;;;;;21.15;10.77;;;;;;;7.22;100.00;102217.19;5076111;28;20037;-80
2022/02/02 18:33:53;;;;;;;14.88;10.13;;;;;;;7.15;100.00;102229.06;5076014;28;20115;-79
2022/02/02 18:55:43;;;;;;;28.25;13.60;;;;;;;7.06;100.00;102217.16;5075768;28;20381;-81
2022/02/02 18:58:35;;;;;;;26.35;13.95;;;;;;;7.09;100.00;102213.50;5075115;28;20044;-80
2022/02/02 19:07:05;;;;;;;32.65;16.35;;;;;;;7.12;100.00;102214.22;5075312;28;20051;-78
2022/02/02 19:31:26;;;;;;;32.25;15.45;;;;;;;7.11;100.00;102196.63;5074553;28;20087;-83
2022/02/02 19:55:36;;;;;;;20.33;10.45;;;;;;;7.07;100.00;102190.63;5074085;28;20472;-78
2022/02/02 20:09:08;;;;;;;35.00;9.85;;;;;;;7.12;100.00;102193.03;5073741;28;20040;-79
2022/02/02 20:11:37;;;;;;;25.75;8.55;;;;;;;7.13;100.00;102186.78;5072281;28;20040;-80
2022/02/02 20:14:04;;;;;;;15.23;8.23;;;;;;;7.12;100.00;102187.75;5072528;28;20449;-80
2022/02/02 20:16:29;;;;;;;22.73;8.15;;;;;;;7.13;100.00;102183.28;5073520;28;20047;-79
2022/02/02 20:18:58;;;;;;;16.25;7.25;;;;;;;7.14;100.00;102172.63;5072510;28;20040;-79
2022/02/02 20:21:28;;;;;;;13.98;6.53;;;;;;;7.17;100.00;102179.56;5073231;28;20082;-79
2022/02/02 20:23:53;;;;;;;12.95;6.97;;;;;;;7.20;100.00;102182.03;5072549;28;20043;-79
2022/02/02 20:26:22;;;;;;;18.73;7.35;;;;;;;7.22;100.00;102183.63;5073603;28;20431;-78
2022/02/02 20:28:48;;;;;;;12.88;5.65;;;;;;;7.24;100.00;102179.13;5073451;28;20036;-78
2022/02/02 20:31:15;;;;;;;11.07;5.40;;;;;;;7.26;100.00;102180.84;5073138;28;20044;-79
2022/02/02 20:33:41;;;;;;;16.88;6.20;;;;;;;7.25;100.00;102179.97;5073142;28;20069;-76
2022/02/02 20:36:07;;;;;;;13.32;5.82;;;;;;;7.28;100.00;102184.25;5073401;28;20376;-80
2022/02/02 20:38:33;;;;;;;17.80;5.60;;;;;;;7.28;100.00;102182.44;5073090;28;20062;-77
2022/02/02 20:41:00;;;;;;;11.15;5.10;;;;;;;7.29;100.00;102185.97;5072728;28;20081;-79
2022/02/02 20:46:14;;;;;;;18.60;5.40;;;;;;;7.30;100.00;102193.81;5073147;28;20135;-80
2022/02/02 21:10:06;;;;;;;12.95;4.25;;;;;;;7.28;100.00;102182.44;5073120;28;20055;-81
2022/02/02 21:15:24;;;;;;;16.63;4.00;;;;;;;7.35;100.00;102181.16;5072328;28;20059;-81
2022/02/02 21:17:51;;;;;;;9.20;3.58;;;;;;;7.36;100.00;102185.53;5073862;28;20036;-78
2022/02/02 21:20:25;;;;;;;12.55;3.85;;;;;;;7.39;100.00;102185.38;5073124;28;20043;-79
2022/02/02 21:22:57;;;;;;;12.80;3.72;;;;;;;7.45;99.71;102178.00;5073600;28;20037;-80
2022/02/02 21:28:08;;;;;;;8.20;3.58;;;;;;;7.48;98.81;102165.47;5073179;28;20534;-79
2022/02/02 21:30:36;;;;;;;9.40;3.33;;;;;;;7.49;98.60;102182.19;5071889;28;20380;-80
2022/02/02 21:33:02;;;;;;;13.65;3.75;;;;;;;7.51;98.52;102180.31;5072854;28;20058;-79
2022/02/02 21:35:28;;;;;;;11.38;3.25;;;;;;;7.48;98.44;102172.53;5072824;28;20037;-79
2022/02/02 21:38:02;;;;;;;5.80;2.63;;;;;;;7.49;98.56;102184.84;5073064;28;20456;-79
2022/02/02 21:40:29;;;;;;;10.25;3.75;;;;;;;7.53;98.67;102184.56;5071793;28;20464;-78
2022/02/02 21:42:56;;;;;;;7.93;3.35;;;;;;;7.53;98.21;102183.72;5072486;28;20025;-79
2022/02/02 21:45:23;;;;;;;7.50;3.35;;;;;;;7.55;98.25;102187.13;5071548;28;20029;-79
2022/02/02 21:47:49;;;;;;;8.02;3.38;;;;;;;7.55;98.07;102185.38;5072573;28;20437;-79
2022/02/02 21:50:18;;;;;;;11.70;3.38;;;;;;;7.55;97.80;102188.00;5071054;28;20043;-79
2022/02/02 21:52:44;;;;;;;13.38;3.90;;;;;;;7.55;97.88;102174.78;5072611;28;20475;-79
2022/02/02 21:55:10;;;;;;;7.68;3.63;;;;;;;7.55;97.79;102177.41;5072500;28;20067;-79
2022/02/02 21:57:36;;;;;;;6.63;2.97;;;;;;;7.57;97.60;102164.09;5073418;28;20024;-79
2022/02/02 22:00:05;;;;;;;9.35;3.15;;;;;;;7.56;97.57;102168.50;5076360;28;20463;-79
2022/02/02 22:02:32;;;;;;;7.93;3.15;;;;;;;7.59;97.04;102167.50;5077115;28;20056;-80
2022/02/02 22:05:01;;;;;;;7.47;3.00;;;;;;;7.61;96.89;102162.94;5076446;28;20475;-78
2022/02/02 22:07:27;;;;;;;9.50;3.30;;;;;;;7.61;97.00;102167.41;5076132;28;20057;-79
2022/02/02 22:09:56;;;;;;;12.95;3.63;;;;;;;7.59;96.79;102167.50;5076433;28;20465;-79
2022/02/02 22:12:22;;;;;;;10.32;3.65;;;;;;;7.58;97.03;102166.66;5076455;28;20083;-79
2022/02/02 22:14:50;;;;;;;7.13;3.15;;;;;;;7.57;96.96;102177.34;5075910;28;20076;-79